Time;durP1;ratioP1;P1;durP2;ratioP2;P2;SDS_P1;SDS_P2;PMS_P1;PMS_P2;Temp;Humidity;BMP_temperature;BMP_pressure;BME280_temperature;BME280_humidity;BME280_pressure;Samples;Min_cycle;Max_cycle;Signal;HPM_P1;HPM_P2
2022/07/23 00:01:16;;;;;;;7.15;3.42;;;;;;;;;;5060841;28;20024;-86
2022/07/23 00:03:42;;;;;;;7.43;4.15;;;;;;;;;;5090757;28;20024;-89
2022/07/23 00:06:07;;;;;;;4.50;2.85;;;;;;;;;;5094496;28;20058;-89
2022/07/23 00:08:33;;;;;;;6.30;3.42;;;;;;;;;;5084723;28;20029;-88
2022/07/23 00:10:58;;;;;;;7.07;3.70;;;;;;;;;;5086518;28;20036;-89
2022/07/23 00:13:24;;;;;;;5.53;3.17;;;;;;;;;;5069248;28;20114;-89
2022/07/23 00:15:49;;;;;;;5.90;3.63;;;;;;;;;;5082662;28;20050;-90
2022/07/23 00:18:14;;;;;;;4.05;3.20;;;;;;;;;;5066080;28;20103;-89
2022/07/23 00:20:40;;;;;;;6.53;3.72;;;;;;;;;;5066281;28;20036;-89
2022/07/23 00:23:05;;;;;;;4.85;3.40;;;;;;;;;;5067609;28;20035;-87
2022/07/23 00:25:31;;;;;;;6.07;3.33;;;;;;;;;;5064109;28;20074;-88
2022/07/23 00:27:58;;;;;;;7.10;3.65;;;;;;;;;;5083691;28;20082;-89
2022/07/23 00:30:23;;;;;;;5.10;3.55;;;;;;;;;;5072021;28;20033;-89
2022/07/23 00:32:51;;;;;;;8.80;3.67;;;;;;;;;;5087431;28;20025;-90
2022/07/23 00:35:20;;;;;;;6.57;3.50;;;;;;;;;;5066961;28;20102;-88
2022/07/23 00:37:46;;;;;;;5.83;3.63;;;;;;;;;;5060151;28;20024;-89
2022/07/23 00:40:12;;;;;;;5.18;3.45;;;;;;;;;;5069450;28;20074;-88
2022/07/23 00:42:39;;;;;;;6.13;3.30;;;;;;;;;;5083096;28;20105;-88
2022/07/23 00:45:05;;;;;;;7.60;3.70;;;;;;;;;;5063305;28;20024;-87
2022/07/23 00:47:30;;;;;;;5.68;3.38;;;;;;;;;;5090904;28;20047;-88
2022/07/23 00:49:56;;;;;;;4.57;3.28;;;;;;;;;;5085972;28;20032;-88
2022/07/23 00:52:21;;;;;;;5.00;3.30;;;;;;;;;;5066104;28;20467;-88
2022/07/23 00:54:47;;;;;;;5.70;3.78;;;;;;;;;;5065481;28;20032;-88
2022/07/23 00:57:12;;;;;;;4.97;3.60;;;;;;;;;;5062593;28;20025;-89
2022/07/23 00:59:39;;;;;;;6.00;3.50;;;;;;;;;;5064363;28;20074;-89
2022/07/23 01:02:04;;;;;;;5.80;3.72;;;;;;;;;;5077237;28;20151;-88
2022/07/23 01:04:30;;;;;;;6.28;3.47;;;;;;;;;;5065937;28;20099;-88
2022/07/23 01:06:55;;;;;;;8.25;3.38;;;;;;;;;;5068786;28;20160;-89
2022/07/23 01:09:21;;;;;;;7.80;4.03;;;;;;;;;;5063862;28;20044;-87
2022/07/23 01:11:46;;;;;;;4.25;3.38;;;;;;;;;;5079784;28;20028;-87
2022/07/23 01:14:15;;;;;;;6.72;3.33;;;;;;;;;;5071129;28;20016;-88
2022/07/23 01:16:42;;;;;;;7.75;3.50;;;;;;;;;;5058852;28;20468;-87
2022/07/23 01:19:08;;;;;;;4.75;3.20;;;;;;;;;;5080490;28;20044;-88
2022/07/23 01:21:38;;;;;;;6.68;3.70;;;;;;;;;;5087045;28;20064;-87
2022/07/23 01:24:04;;;;;;;9.85;3.72;;;;;;;;;;5076774;28;20850;-90
2022/07/23 01:26:30;;;;;;;8.77;3.58;;;;;;;;;;5081714;28;20055;-87
2022/07/23 01:28:55;;;;;;;9.43;3.35;;;;;;;;;;5060719;28;20024;-87
2022/07/23 01:31:21;;;;;;;8.23;3.60;;;;;;;;;;5063441;28;20115;-87
2022/07/23 01:33:46;;;;;;;8.45;3.35;;;;;;;;;;5067251;28;20107;-87
2022/07/23 01:36:12;;;;;;;7.45;3.55;;;;;;;;;;5058831;28;20039;-87
2022/07/23 01:38:37;;;;;;;6.25;3.30;;;;;;;;;;5092166;28;20035;-86
2022/07/23 01:41:03;;;;;;;5.88;3.50;;;;;;;;;;5083073;28;20024;-88
2022/07/23 01:43:28;;;;;;;7.45;3.10;;;;;;;;;;5067098;28;20361;-88
2022/07/23 01:45:54;;;;;;;5.93;3.47;;;;;;;;;;5066333;28;20126;-88
2022/07/23 01:48:19;;;;;;;4.45;3.40;;;;;;;;;;5066963;28;20380;-88
2022/07/23 01:50:47;;;;;;;6.35;3.97;;;;;;;;;;5060992;28;20046;-88
2022/07/23 01:53:12;;;;;;;6.35;3.38;;;;;;;;;;5062325;28;20052;-88
2022/07/23 01:55:38;;;;;;;6.13;4.38;;;;;;;;;;5066681;28;20036;-89
2022/07/23 01:58:03;;;;;;;4.95;3.28;;;;;;;;;;5066575;28;20102;-88
2022/07/23 02:00:29;;;;;;;8.55;3.65;;;;;;;;;;5060591;28;20027;-88
2022/07/23 02:02:54;;;;;;;5.05;3.08;;;;;;;;;;5061860;28;20088;-87
2022/07/23 02:05:20;;;;;;;8.55;3.35;;;;;;;;;;5070358;28;20055;-86
2022/07/23 02:07:45;;;;;;;4.38;3.22;;;;;;;;;;5078871;28;20094;-90
2022/07/23 02:10:10;;;;;;;6.10;3.25;;;;;;;;;;5077958;28;20039;-87
2022/07/23 02:12:36;;;;;;;5.72;3.25;;;;;;;;;;5089793;28;20077;-90
2022/07/23 02:15:02;;;;;;;8.35;4.55;;;;;;;;;;5080129;28;20463;-89
2022/07/23 02:17:27;;;;;;;6.75;3.95;;;;;;;;;;5066513;28;20020;-88
2022/07/23 02:19:52;;;;;;;5.28;3.22;;;;;;;;;;5079699;28;20045;-87
2022/07/23 02:22:18;;;;;;;4.85;2.85;;;;;;;;;;5059835;28;20043;-88
2022/07/23 02:24:43;;;;;;;5.82;3.05;;;;;;;;;;5062820;28;20028;-90
2022/07/23 02:27:09;;;;;;;9.57;4.15;;;;;;;;;;5082598;28;20021;-85
2022/07/23 02:29:34;;;;;;;6.45;3.40;;;;;;;;;;5086146;28;20040;-87
2022/07/23 02:32:00;;;;;;;6.30;3.40;;;;;;;;;;5086231;28;20483;-88
2022/07/23 02:34:25;;;;;;;7.05;3.70;;;;;;;;;;5056831;28;20024;-87
2022/07/23 02:36:50;;;;;;;6.53;3.80;;;;;;;;;;5087058;28;20048;-88
2022/07/23 02:39:16;;;;;;;5.63;3.53;;;;;;;;;;5057263;28;20111;-86
2022/07/23 02:41:41;;;;;;;4.40;3.33;;;;;;;;;;5087174;28;20031;-86
2022/07/23 02:44:06;;;;;;;6.30;3.67;;;;;;;;;;5079334;28;20056;-88
2022/07/23 02:46:32;;;;;;;6.30;3.33;;;;;;;;;;5080729;28;20020;-87
2022/07/23 02:48:57;;;;;;;5.53;3.42;;;;;;;;;;5067079;28;20395;-89
2022/07/23 02:51:23;;;;;;;6.65;3.13;;;;;;;;;;5081178;28;20025;-89
2022/07/23 02:53:48;;;;;;;5.55;3.28;;;;;;;;;;5073001;28;20077;-88
2022/07/23 02:56:14;;;;;;;4.43;3.42;;;;;;;;;;5089784;28;20467;-89
2022/07/23 02:58:39;;;;;;;6.07;3.50;;;;;;;;;;5067729;28;20468;-88
2022/07/23 03:01:05;;;;;;;5.60;3.40;;;;;;;;;;5098877;28;20499;-87
2022/07/23 03:03:30;;;;;;;6.38;3.60;;;;;;;;;;5064541;28;20126;-88
2022/07/23 03:05:56;;;;;;;5.43;3.15;;;;;;;;;;5081919;28;20059;-89
2022/07/23 03:08:22;;;;;;;6.13;3.33;;;;;;;;;;5083643;28;20144;-87
2022/07/23 03:10:47;;;;;;;5.15;3.40;;;;;;;;;;5063115;28;20491;-87
2022/07/23 03:13:13;;;;;;;5.43;3.10;;;;;;;;;;5067978;28;20405;-89
2022/07/23 03:15:38;;;;;;;4.82;3.63;;;;;;;;;;5097245;28;20473;-88
2022/07/23 03:18:04;;;;;;;7.18;3.50;;;;;;;;;;5078825;28;20024;-86
2022/07/23 03:20:29;;;;;;;6.38;3.92;;;;;;;;;;5065466;28;20037;-88
2022/07/23 03:22:55;;;;;;;4.82;3.28;;;;;;;;;;5090145;28;20361;-87
2022/07/23 03:25:20;;;;;;;4.93;3.50;;;;;;;;;;5068218;28;20024;-88
2022/07/23 03:27:46;;;;;;;5.30;2.90;;;;;;;;;;5075529;28;20046;-86
2022/07/23 03:30:12;;;;;;;4.38;3.47;;;;;;;;;;5082742;28;20107;-87
2022/07/23 03:32:37;;;;;;;5.40;3.00;;;;;;;;;;5080752;28;20036;-88
2022/07/23 03:35:03;;;;;;;6.15;3.97;;;;;;;;;;5057199;28;20376;-86
2022/07/23 03:37:29;;;;;;;5.63;3.35;;;;;;;;;;5077203;28;20020;-87
2022/07/23 03:39:54;;;;;;;4.75;3.47;;;;;;;;;;5056876;28;20079;-87
2022/07/23 03:42:20;;;;;;;6.47;3.60;;;;;;;;;;5085461;28;20445;-87
2022/07/23 03:44:45;;;;;;;7.50;3.47;;;;;;;;;;5079400;28;20032;-87
2022/07/23 03:47:17;;;;;;;7.15;3.47;;;;;;;;;;5063422;28;20234;-88
2022/07/23 03:49:43;;;;;;;7.30;3.70;;;;;;;;;;5052109;28;20029;-88
2022/07/23 03:52:08;;;;;;;6.38;3.42;;;;;;;;;;5081123;28;20548;-88
2022/07/23 03:54:33;;;;;;;6.80;3.20;;;;;;;;;;5063679;28;20028;-89
2022/07/23 03:56:59;;;;;;;4.25;3.13;;;;;;;;;;5060199;28;20052;-89
2022/07/23 03:59:24;;;;;;;5.82;3.72;;;;;;;;;;5059363;28;20771;-90
2022/07/23 04:01:50;;;;;;;5.15;3.30;;;;;;;;;;5061145;28;20024;-89
2022/07/23 04:04:15;;;;;;;5.53;3.75;;;;;;;;;;5060800;28;20027;-88
2022/07/23 04:06:41;;;;;;;5.95;3.10;;;;;;;;;;5079866;28;20496;-89
2022/07/23 04:09:06;;;;;;;5.93;4.05;;;;;;;;;;5058941;28;20074;-89
2022/07/23 04:11:32;;;;;;;5.70;3.50;;;;;;;;;;5086578;28;20029;-89
2022/07/23 04:13:57;;;;;;;4.82;3.50;;;;;;;;;;5072039;28;20027;-90
2022/07/23 04:16:23;;;;;;;6.88;4.03;;;;;;;;;;5057577;28;20039;-88
2022/07/23 04:18:48;;;;;;;6.90;3.72;;;;;;;;;;5065372;28;20030;-89
2022/07/23 04:21:13;;;;;;;5.15;3.60;;;;;;;;;;5082403;28;20124;-90
2022/07/23 04:23:39;;;;;;;6.53;3.45;;;;;;;;;;5075512;28;20039;-90
2022/07/23 04:26:04;;;;;;;5.70;3.63;;;;;;;;;;5083782;28;20020;-90
2022/07/23 04:28:30;;;;;;;6.32;3.88;;;;;;;;;;5061644;28;20070;-88
2022/07/23 04:30:57;;;;;;;8.00;4.65;;;;;;;;;;5061960;28;20111;-91
2022/07/23 04:33:23;;;;;;;7.03;3.88;;;;;;;;;;5079679;28;20028;-88
2022/07/23 04:35:48;;;;;;;7.03;3.92;;;;;;;;;;5073633;28;20030;-87
2022/07/23 04:38:13;;;;;;;8.27;4.65;;;;;;;;;;5081964;28;20106;-86
2022/07/23 04:40:39;;;;;;;7.43;4.70;;;;;;;;;;5065905;28;20073;-87
2022/07/23 04:43:05;;;;;;;6.43;4.78;;;;;;;;;;5078281;28;20107;-89
2022/07/23 04:45:30;;;;;;;10.35;5.35;;;;;;;;;;5080140;28;20510;-90
2022/07/23 04:47:56;;;;;;;6.50;4.80;;;;;;;;;;5077559;28;20021;-91
2022/07/23 04:50:22;;;;;;;8.63;4.50;;;;;;;;;;5082218;28;20020;-91
2022/07/23 04:52:48;;;;;;;8.52;4.88;;;;;;;;;;5062298;28;20496;-89
2022/07/23 04:55:14;;;;;;;8.60;5.18;;;;;;;;;;5060672;28;20454;-89
2022/07/23 04:57:39;;;;;;;7.03;5.45;;;;;;;;;;5063102;28;20867;-88
2022/07/23 05:00:06;;;;;;;10.65;5.53;;;;;;;;;;5065457;28;20460;-87
2022/07/23 05:02:31;;;;;;;8.95;6.00;;;;;;;;;;5089326;28;20476;-86
2022/07/23 05:04:57;;;;;;;10.20;6.00;;;;;;;;;;5095337;28;20043;-89
2022/07/23 05:07:22;;;;;;;7.10;5.90;;;;;;;;;;5082652;28;20103;-88
2022/07/23 05:09:48;;;;;;;12.02;5.90;;;;;;;;;;5075340;28;20518;-87
2022/07/23 05:12:13;;;;;;;6.72;5.45;;;;;;;;;;5079819;28;20024;-90
2022/07/23 05:14:39;;;;;;;8.65;5.75;;;;;;;;;;5061901;28;20060;-87
2022/07/23 05:17:04;;;;;;;8.85;5.32;;;;;;;;;;5079563;28;20079;-87
2022/07/23 05:19:30;;;;;;;6.25;5.28;;;;;;;;;;5061412;28;20024;-85
2022/07/23 05:21:58;;;;;;;5.78;4.68;;;;;;;;;;5067006;28;20123;-86
2022/07/23 05:24:24;;;;;;;7.30;5.07;;;;;;;;;;5082413;28;20071;-88
2022/07/23 05:26:49;;;;;;;5.95;4.53;;;;;;;;;;5087240;28;20084;-85
2022/07/23 05:29:15;;;;;;;8.98;5.10;;;;;;;;;;5085914;28;20020;-80
2022/07/23 05:31:40;;;;;;;6.63;4.97;;;;;;;;;;5077173;28;20028;-84
2022/07/23 05:34:09;;;;;;;8.95;5.43;;;;;;;;;;5062683;28;20142;-84
2022/07/23 05:36:48;;;;;;;9.25;4.95;;;;;;;;;;5082902;28;20025;-82
2022/07/23 05:39:14;;;;;;;;;;;;;;;;;;5060181;28;20038;-83
2022/07/23 05:41:39;;;;;;;5.40;4.65;;;;;;;;;;5079850;28;19912;-81
2022/07/23 05:44:05;;;;;;;8.32;4.70;;;;;;;;;;5071975;28;20429;-81
2022/07/23 05:46:30;;;;;;;8.20;5.80;;;;;;;;;;5089394;28;20036;-81
2022/07/23 05:48:55;;;;;;;9.95;5.35;;;;;;;;;;5074745;28;20028;-82
2022/07/23 05:51:22;;;;;;;7.05;5.10;;;;;;;;;;5076399;28;20025;-81
2022/07/23 05:53:48;;;;;;;6.53;5.13;;;;;;;;;;5060657;28;20173;-84
2022/07/23 05:56:14;;;;;;;6.57;5.40;;;;;;;;;;5076221;28;20523;-80
2022/07/23 05:58:39;;;;;;;8.88;5.05;;;;;;;;;;5076550;28;20118;-83
2022/07/23 06:01:05;;;;;;;7.95;5.25;;;;;;;;;;5082156;28;20491;-81
2022/07/23 06:03:30;;;;;;;7.22;4.72;;;;;;;;;;5077850;28;20480;-82
2022/07/23 06:05:55;;;;;;;5.68;5.07;;;;;;;;;;5082468;28;20059;-82
2022/07/23 06:08:21;;;;;;;9.77;5.03;;;;;;;;;;5073346;28;20035;-84
2022/07/23 06:10:46;;;;;;;6.53;5.38;;;;;;;;;;5083499;28;20028;-85
2022/07/23 06:13:12;;;;;;;6.30;5.35;;;;;;;;;;5081162;28;20038;-84
2022/07/23 06:15:37;;;;;;;10.15;5.70;;;;;;;;;;5060269;28;20028;-88
2022/07/23 06:18:03;;;;;;;8.90;5.03;;;;;;;;;;5066971;28;20472;-86
2022/07/23 06:20:28;;;;;;;8.70;4.93;;;;;;;;;;5076349;28;20098;-82
2022/07/23 06:22:54;;;;;;;8.63;5.15;;;;;;;;;;5075149;28;20036;-84
2022/07/23 06:25:20;;;;;;;9.10;5.00;;;;;;;;;;5081461;28;20074;-83
2022/07/23 06:27:46;;;;;;;9.23;5.38;;;;;;;;;;5090485;28;20364;-82
2022/07/23 06:30:13;;;;;;;7.93;4.90;;;;;;;;;;5085401;28;20027;-83
2022/07/23 06:32:38;;;;;;;7.63;4.97;;;;;;;;;;5078688;28;20051;-82
2022/07/23 06:35:04;;;;;;;9.77;5.13;;;;;;;;;;5084745;28;20471;-83
2022/07/23 06:37:30;;;;;;;6.72;4.85;;;;;;;;;;5083262;28;20103;-83
2022/07/23 06:39:55;;;;;;;14.85;9.38;;;;;;;;;;5062925;28;20487;-83
2022/07/23 06:42:21;;;;;;;8.52;5.90;;;;;;;;;;5078456;28;20024;-83
2022/07/23 06:44:55;;;;;;;24.90;18.00;;;;;;;;;;5065230;28;20169;-86
2022/07/23 06:47:21;;;;;;;7.55;5.43;;;;;;;;;;5057362;28;20055;-82
2022/07/23 06:49:46;;;;;;;11.45;5.25;;;;;;;;;;5081436;28;20020;-82
2022/07/23 06:52:11;;;;;;;7.22;5.18;;;;;;;;;;5085306;28;20055;-83
2022/07/23 06:54:57;;;;;;;8.45;5.45;;;;;;;;;;5087023;28;20055;-86
2022/07/23 06:57:25;;;;;;;8.85;5.22;;;;;;;;;;5075808;28;20036;-88
2022/07/23 06:59:51;;;;;;;9.88;5.13;;;;;;;;;;5060945;28;20502;-87
2022/07/23 07:02:16;;;;;;;7.78;5.78;;;;;;;;;;5079610;28;20020;-82
2022/07/23 07:04:42;;;;;;;6.95;5.45;;;;;;;;;;5083721;28;20036;-84
2022/07/23 07:07:07;;;;;;;9.98;5.13;;;;;;;;;;5080650;28;20020;-82
2022/07/23 07:09:32;;;;;;;10.48;6.07;;;;;;;;;;5074048;28;20028;-83
2022/07/23 07:11:58;;;;;;;6.47;5.13;;;;;;;;;;5068078;28;20027;-84
2022/07/23 07:14:23;;;;;;;7.53;5.07;;;;;;;;;;5073714;28;20075;-81
2022/07/23 07:16:49;;;;;;;10.00;5.35;;;;;;;;;;5073304;28;20073;-80
2022/07/23 07:19:14;;;;;;;8.65;5.10;;;;;;;;;;5068518;28;20103;-80
2022/07/23 07:21:39;;;;;;;10.48;6.07;;;;;;;;;;5066328;28;20396;-79
2022/07/23 07:24:06;;;;;;;9.05;5.95;;;;;;;;;;5073903;28;20036;-80
2022/07/23 07:26:31;;;;;;;7.60;5.40;;;;;;;;;;5054755;28;20024;-80
2022/07/23 07:28:57;;;;;;;9.68;5.55;;;;;;;;;;5082224;28;21331;-80
2022/07/23 07:31:23;;;;;;;8.13;5.45;;;;;;;;;;5074558;28;20032;-79
2022/07/23 07:33:48;;;;;;;8.05;5.43;;;;;;;;;;5077711;28;20127;-79
2022/07/23 07:36:14;;;;;;;11.48;5.38;;;;;;;;;;5068549;28;20500;-79
2022/07/23 07:38:39;;;;;;;32.63;27.65;;;;;;;;;;5065043;28;20158;-79
2022/07/23 07:41:05;;;;;;;25.67;20.63;;;;;;;;;;5055078;28;20042;-79
2022/07/23 07:43:30;;;;;;;9.30;7.00;;;;;;;;;;5061064;28;20028;-80
2022/07/23 07:45:55;;;;;;;15.82;6.03;;;;;;;;;;5074316;28;20038;-80
2022/07/23 07:48:21;;;;;;;15.02;6.20;;;;;;;;;;5069598;28;20380;-80
2022/07/23 07:50:47;;;;;;;8.75;5.35;;;;;;;;;;5071293;28;20027;-80
2022/07/23 07:53:12;;;;;;;8.07;5.60;;;;;;;;;;5070479;28;20024;-79
2022/07/23 07:55:37;;;;;;;9.27;6.25;;;;;;;;;;5067589;28;20472;-80
2022/07/23 07:58:03;;;;;;;16.08;6.05;;;;;;;;;;5051430;28;20029;-81
2022/07/23 08:00:32;;;;;;;10.07;6.00;;;;;;;;;;5076622;28;20020;-82
2022/07/23 08:02:58;;;;;;;13.52;7.28;;;;;;;;;;5083292;28;20028;-82
2022/07/23 08:05:26;;;;;;;9.55;6.22;;;;;;;;;;5082356;28;20032;-85
2022/07/23 08:07:52;;;;;;;11.40;6.43;;;;;;;;;;5086828;28;20310;-86
2022/07/23 08:10:18;;;;;;;9.40;5.85;;;;;;;;;;5065584;28;20098;-85
2022/07/23 08:12:47;;;;;;;11.60;6.10;;;;;;;;;;5088865;28;20495;-85
2022/07/23 08:15:14;;;;;;;;;;;;;;;;;;5088808;28;20031;-90
2022/07/23 08:17:40;;;;;;;8.95;6.10;;;;;;;;;;5075983;28;19943;-87
2022/07/23 08:20:07;;;;;;;8.10;5.65;;;;;;;;;;5086599;28;20143;-82
2022/07/23 08:22:47;;;;;;;10.15;5.78;;;;;;;;;;5086750;28;20036;-89
2022/07/23 08:25:14;;;;;;;12.10;6.03;;;;;;;;;;5083662;28;20063;-89
2022/07/23 08:27:40;;;;;;;7.85;5.97;;;;;;;;;;5070259;28;20070;-86
2022/07/23 08:30:06;;;;;;;7.43;5.55;;;;;;;;;;5083732;28;20021;-87
2022/07/23 08:32:31;;;;;;;11.43;5.90;;;;;;;;;;5084808;28;20385;-89
2022/07/23 08:34:57;;;;;;;7.15;5.78;;;;;;;;;;5067156;28;20026;-89
2022/07/23 08:37:22;;;;;;;18.13;6.32;;;;;;;;;;5064061;28;20025;-85
2022/07/23 08:39:48;;;;;;;9.63;6.07;;;;;;;;;;5081553;28;20043;-82
2022/07/23 08:42:17;;;;;;;8.65;5.90;;;;;;;;;;5086413;28;20043;-82
2022/07/23 08:44:46;;;;;;;12.80;5.53;;;;;;;;;;5082693;28;20093;-84
2022/07/23 08:47:13;;;;;;;8.80;5.78;;;;;;;;;;5084132;28;20526;-84
2022/07/23 08:49:39;;;;;;;23.10;5.85;;;;;;;;;;5062464;28;20024;-83
2022/07/23 08:52:05;;;;;;;17.20;6.03;;;;;;;;;;5086368;28;20059;-84
2022/07/23 08:54:32;;;;;;;10.85;5.88;;;;;;;;;;5084492;28;20798;-86
2022/07/23 08:56:57;;;;;;;9.68;5.53;;;;;;;;;;5080034;28;20032;-83
2022/07/23 08:59:22;;;;;;;9.05;5.82;;;;;;;;;;5078964;28;20073;-85
2022/07/23 09:01:48;;;;;;;11.20;5.25;;;;;;;;;;5082040;28;20434;-83
2022/07/23 09:04:13;;;;;;;9.50;5.80;;;;;;;;;;5083143;28;20027;-85
2022/07/23 09:06:39;;;;;;;9.35;5.90;;;;;;;;;;5065312;28;20414;-84
2022/07/23 09:09:20;;;;;;;8.68;5.40;;;;;;;;;;5084470;28;20027;-86
2022/07/23 09:11:47;;;;;;;9.23;6.35;;;;;;;;;;5085981;28;20561;-84
2022/07/23 09:14:12;;;;;;;9.40;5.68;;;;;;;;;;5066376;28;20101;-84
2022/07/23 09:16:38;;;;;;;11.38;5.90;;;;;;;;;;5066560;28;20036;-87
2022/07/23 09:19:05;;;;;;;8.77;4.97;;;;;;;;;;5065965;28;20147;-87
2022/07/23 09:21:31;;;;;;;7.72;5.32;;;;;;;;;;5087389;28;20041;-85
2022/07/23 09:23:57;;;;;;;6.75;5.90;;;;;;;;;;5084890;28;20031;-85
2022/07/23 09:26:40;;;;;;;8.57;6.13;;;;;;;;;;5082803;28;20337;-85
2022/07/23 09:29:15;;;;;;;12.32;5.30;;;;;;;;;;5105054;28;20361;-83
2022/07/23 09:32:00;;;;;;;7.20;4.95;;;;;;;;;;5088426;28;20043;-88
2022/07/23 09:34:38;;;;;;;10.90;6.15;;;;;;;;;;5086492;28;20020;-84
2022/07/23 09:37:19;;;;;;;30.15;9.55;;;;;;;;;;5084880;28;20050;-86
2022/07/23 09:39:47;;;;;;;8.35;5.95;;;;;;;;;;5081118;28;20100;-84
2022/07/23 09:42:24;;;;;;;8.68;4.93;;;;;;;;;;5064338;28;20027;-82
2022/07/23 09:44:55;;;;;;;9.80;5.57;;;;;;;;;;5077337;28;20135;-86
2022/07/23 09:47:22;;;;;;;6.47;5.20;;;;;;;;;;5080243;28;20048;-82
2022/07/23 09:50:05;;;;;;;7.35;5.03;;;;;;;;;;5075753;28;20103;-81
2022/07/23 09:52:42;;;;;;;8.57;4.53;;;;;;;;;;5079291;28;20114;-85
2022/07/23 09:55:08;;;;;;;7.60;4.20;;;;;;;;;;5081436;28;20035;-87
2022/07/23 09:57:34;;;;;;;7.38;4.38;;;;;;;;;;5079858;28;20052;-86
2022/07/23 10:00:09;;;;;;;8.30;4.13;;;;;;;;;;5073743;28;20036;-82
2022/07/23 10:02:40;;;;;;;7.15;4.50;;;;;;;;;;5080967;28;20115;-85
2022/07/23 10:05:07;;;;;;;6.85;4.90;;;;;;;;;;5095008;28;20499;-82
2022/07/23 10:07:36;;;;;;;9.43;4.60;;;;;;;;;;5060558;28;20032;-81
2022/07/23 10:10:04;;;;;;;5.43;4.57;;;;;;;;;;5080012;28;20118;-84
2022/07/23 10:15:08;;;;;;;13.00;4.55;;;;;;;;;;5071691;28;20032;-81
2022/07/23 10:17:35;;;;;;;6.63;4.43;;;;;;;;;;5059333;28;20021;-84
2022/07/23 10:20:00;;;;;;;9.82;4.72;;;;;;;;;;5061604;28;20625;-81
2022/07/23 10:22:36;;;;;;;8.23;4.95;;;;;;;;;;5083830;28;20024;-85
2022/07/23 10:25:09;;;;;;;5.63;4.38;;;;;;;;;;5074951;28;20016;-83
2022/07/23 10:28:04;;;;;;;8.63;4.90;;;;;;;;;;5083043;28;20039;-84
2022/07/23 10:31:07;;;;;;;8.05;5.18;;;;;;;;;;5077934;28;20484;-83
2022/07/23 10:33:56;;;;;;;7.32;3.88;;;;;;;;;;5078548;28;20385;-82
2022/07/23 10:36:36;;;;;;;6.10;4.20;;;;;;;;;;5075497;28;20024;-85
2022/07/23 10:39:28;;;;;;;4.72;3.45;;;;;;;;;;5077764;28;20111;-83
2022/07/23 10:42:11;;;;;;;7.50;4.10;;;;;;;;;;5074543;28;20112;-83
2022/07/23 10:44:42;;;;;;;9.75;4.80;;;;;;;;;;5067740;28;20033;-83
2022/07/23 10:49:37;;;;;;;5.70;4.43;;;;;;;;;;5076630;28;20427;-85
2022/07/23 10:52:18;;;;;;;7.35;3.83;;;;;;;;;;5072883;28;20170;-83
2022/07/23 10:54:51;;;;;;;20.02;5.55;;;;;;;;;;5076502;28;20028;-81
2022/07/23 10:57:27;;;;;;;7.88;3.55;;;;;;;;;;5072693;28;20036;-83
2022/07/23 11:00:22;;;;;;;8.38;4.18;;;;;;;;;;5058530;28;20472;-87
2022/07/23 11:02:59;;;;;;;11.43;4.38;;;;;;;;;;5076322;28;20045;-84
2022/07/23 11:05:38;;;;;;;13.50;4.45;;;;;;;;;;5083156;28;20032;-87
2022/07/23 11:08:03;;;;;;;10.85;5.47;;;;;;;;;;5076685;28;20534;-82
2022/07/23 11:10:53;;;;;;;8.38;4.10;;;;;;;;;;5078848;28;20024;-86
2022/07/23 11:13:22;;;;;;;6.82;3.83;;;;;;;;;;5078587;28;20025;-85
2022/07/23 11:16:02;;;;;;;7.43;4.32;;;;;;;;;;5066326;28;20028;-88
2022/07/23 11:18:40;;;;;;;7.50;4.15;;;;;;;;;;5086788;28;20115;-82
2022/07/23 11:21:30;;;;;;;10.20;4.55;;;;;;;;;;5084335;28;20032;-88
2022/07/23 11:24:07;;;;;;;5.88;4.00;;;;;;;;;;5068701;28;20044;-82
2022/07/23 11:26:58;;;;;;;7.13;4.32;;;;;;;;;;5076619;28;20035;-84
2022/07/23 11:29:33;;;;;;;6.65;4.22;;;;;;;;;;5087064;28;20023;-81
2022/07/23 11:32:08;;;;;;;8.55;4.18;;;;;;;;;;5065737;28;20031;-83
2022/07/23 11:34:41;;;;;;;6.57;3.78;;;;;;;;;;5080854;28;20111;-81
2022/07/23 11:37:08;;;;;;;11.15;4.85;;;;;;;;;;5079966;28;20024;-82
2022/07/23 11:39:35;;;;;;;10.40;4.65;;;;;;;;;;5084568;28;20024;-83
2022/07/23 11:42:05;;;;;;;8.35;4.53;;;;;;;;;;5084576;28;20060;-85
2022/07/23 11:44:36;;;;;;;7.65;4.75;;;;;;;;;;5088627;28;20032;-82
2022/07/23 11:47:04;;;;;;;9.15;4.10;;;;;;;;;;5066787;28;20082;-82
2022/07/23 11:49:30;;;;;;;11.83;5.63;;;;;;;;;;5066013;28;20874;-84
2022/07/23 11:52:08;;;;;;;9.60;4.93;;;;;;;;;;5077858;28;20262;-84
2022/07/23 11:54:36;;;;;;;7.75;3.83;;;;;;;;;;5086537;28;20035;-82
2022/07/23 11:57:02;;;;;;;7.20;4.30;;;;;;;;;;5084680;28;20035;-86
2022/07/23 11:59:31;;;;;;;11.27;4.25;;;;;;;;;;5085556;28;20028;-85
2022/07/23 12:02:02;;;;;;;11.07;4.32;;;;;;;;;;5081702;28;20075;-88
2022/07/23 12:04:41;;;;;;;8.98;4.53;;;;;;;;;;5079571;28;20028;-85
2022/07/23 12:07:38;;;;;;;9.38;4.53;;;;;;;;;;5076920;28;20136;-82
2022/07/23 12:10:18;;;;;;;9.50;4.27;;;;;;;;;;5085543;28;20025;-87
2022/07/23 12:12:47;;;;;;;13.35;4.13;;;;;;;;;;5101244;28;20036;-87
2022/07/23 12:15:14;;;;;;;11.20;4.05;;;;;;;;;;5087831;28;20051;-87
2022/07/23 12:17:42;;;;;;;10.10;4.22;;;;;;;;;;5088968;28;20089;-87
2022/07/23 12:20:09;;;;;;;10.05;3.38;;;;;;;;;;5085032;28;20068;-84
2022/07/23 12:22:41;;;;;;;8.17;3.80;;;;;;;;;;5067037;28;20072;-85
2022/07/23 12:25:12;;;;;;;8.07;3.63;;;;;;;;;;5067453;28;20020;-82
2022/07/23 12:27:38;;;;;;;10.10;4.35;;;;;;;;;;5071865;28;20055;-83
2022/07/23 12:30:24;;;;;;;8.43;4.05;;;;;;;;;;5075262;28;20111;-86
2022/07/23 12:32:53;;;;;;;8.20;3.83;;;;;;;;;;5065642;28;20035;-83
2022/07/23 12:35:19;;;;;;;6.93;3.90;;;;;;;;;;5091217;28;20034;-83
2022/07/23 12:37:48;;;;;;;12.98;4.50;;;;;;;;;;5086609;28;20036;-83
2022/07/23 12:40:31;;;;;;;8.32;4.25;;;;;;;;;;5081194;28;20044;-83
2022/07/23 12:42:58;;;;;;;10.57;5.07;;;;;;;;;;5062683;28;20032;-83
2022/07/23 12:45:40;;;;;;;9.65;4.22;;;;;;;;;;5075967;28;20028;-85
2022/07/23 12:48:06;;;;;;;8.50;4.05;;;;;;;;;;5058956;28;20783;-84
2022/07/23 12:50:41;;;;;;;13.13;4.00;;;;;;;;;;5082175;28;20407;-82
2022/07/23 12:53:15;;;;;;;9.25;3.60;;;;;;;;;;5086487;28;20365;-83
2022/07/23 12:55:41;;;;;;;8.15;3.55;;;;;;;;;;5078586;28;20101;-82
2022/07/23 12:58:25;;;;;;;7.80;3.72;;;;;;;;;;5073007;28;20103;-83
2022/07/23 13:01:02;;;;;;;10.40;3.92;;;;;;;;;;5071525;28;20025;-83
2022/07/23 13:03:34;;;;;;;10.00;3.60;;;;;;;;;;5054208;28;20028;-82
2022/07/23 13:06:00;;;;;;;11.07;3.92;;;;;;;;;;5074718;28;20020;-81
2022/07/23 13:08:28;;;;;;;9.65;3.75;;;;;;;;;;5073355;28;20028;-82
2022/07/23 13:10:54;;;;;;;7.93;3.50;;;;;;;;;;5073919;28;20017;-82
2022/07/23 13:13:26;;;;;;;8.80;4.05;;;;;;;;;;5089208;28;20409;-83
2022/07/23 13:15:52;;;;;;;10.93;4.05;;;;;;;;;;5074572;28;20055;-83
2022/07/23 13:18:19;;;;;;;11.65;3.58;;;;;;;;;;5061374;28;20043;-84
2022/07/23 13:20:48;;;;;;;9.75;3.63;;;;;;;;;;5086226;28;20040;-83
2022/07/23 13:23:14;;;;;;;6.93;3.40;;;;;;;;;;5088936;28;20043;-83
2022/07/23 13:25:40;;;;;;;10.82;4.20;;;;;;;;;;5058103;28;20128;-84
2022/07/23 13:28:06;;;;;;;9.35;3.97;;;;;;;;;;5075363;28;20020;-80
2022/07/23 13:30:31;;;;;;;8.88;3.85;;;;;;;;;;5082812;28;20027;-81
2022/07/23 13:32:57;;;;;;;12.32;4.25;;;;;;;;;;5084547;28;20020;-84
2022/07/23 13:35:22;;;;;;;9.18;3.83;;;;;;;;;;5058992;28;20028;-83
2022/07/23 13:37:48;;;;;;;8.55;4.05;;;;;;;;;;5082275;28;20024;-83
2022/07/23 13:40:14;;;;;;;12.35;4.15;;;;;;;;;;5084330;28;20110;-81
2022/07/23 13:42:40;;;;;;;8.95;4.30;;;;;;;;;;5060393;28;20673;-84
2022/07/23 13:45:06;;;;;;;9.18;4.07;;;;;;;;;;5058732;28;20063;-86
2022/07/23 13:47:32;;;;;;;9.52;3.67;;;;;;;;;;5081269;28;20409;-83
2022/07/23 13:49:58;;;;;;;7.68;3.70;;;;;;;;;;5057987;28;20023;-86
2022/07/23 13:52:23;;;;;;;7.00;3.65;;;;;;;;;;5083273;28;20047;-84
2022/07/23 13:54:49;;;;;;;7.40;3.60;;;;;;;;;;5071972;28;20113;-84
2022/07/23 13:57:15;;;;;;;6.50;3.47;;;;;;;;;;5072231;28;20472;-83
2022/07/23 13:59:40;;;;;;;7.72;3.72;;;;;;;;;;5080856;28;20480;-84
2022/07/23 14:02:06;;;;;;;7.88;3.80;;;;;;;;;;5080009;28;20030;-83
2022/07/23 14:04:32;;;;;;;5.28;3.60;;;;;;;;;;5081385;28;20028;-87
2022/07/23 14:06:57;;;;;;;8.30;3.40;;;;;;;;;;5083419;28;20035;-85
2022/07/23 14:09:23;;;;;;;7.88;3.60;;;;;;;;;;5081699;28;20433;-85
2022/07/23 14:11:50;;;;;;;10.25;4.25;;;;;;;;;;5073435;28;20039;-84
2022/07/23 14:14:16;;;;;;;7.43;3.60;;;;;;;;;;5075867;28;20602;-84
2022/07/23 14:16:42;;;;;;;7.88;3.80;;;;;;;;;;5079984;28;20377;-81
2022/07/23 14:19:07;;;;;;;10.13;4.15;;;;;;;;;;5088383;28;20030;-83
2022/07/23 14:21:32;;;;;;;7.18;3.85;;;;;;;;;;5069553;28;20090;-83
2022/07/23 14:23:58;;;;;;;6.35;3.40;;;;;;;;;;5086774;28;20028;-84
2022/07/23 14:26:23;;;;;;;5.70;4.28;;;;;;;;;;5076637;28;20024;-82
2022/07/23 14:28:49;;;;;;;8.88;3.60;;;;;;;;;;5081730;28;20472;-87
2022/07/23 14:31:14;;;;;;;9.45;3.38;;;;;;;;;;5077402;28;20046;-83
2022/07/23 14:33:40;;;;;;;7.32;3.42;;;;;;;;;;5087007;28;20782;-83
2022/07/23 14:36:05;;;;;;;7.25;3.70;;;;;;;;;;5077181;28;20383;-83
2022/07/23 14:38:31;;;;;;;9.20;4.13;;;;;;;;;;5072705;28;20028;-84
2022/07/23 14:40:57;;;;;;;7.93;4.03;;;;;;;;;;5054964;28;20024;-83
2022/07/23 14:43:22;;;;;;;9.32;3.78;;;;;;;;;;5082551;28;20028;-81
2022/07/23 14:45:48;;;;;;;5.50;4.05;;;;;;;;;;5087341;28;20031;-83
2022/07/23 14:48:13;;;;;;;15.85;4.30;;;;;;;;;;5076885;28;20038;-84
2022/07/23 14:50:39;;;;;;;8.73;3.70;;;;;;;;;;5061623;28;20089;-82